Friday, November 17, 2017, 9:16 PM GMT
Back to Local

CYFC, Fredericton, N. B.

Location: , , Canada Lat: 45.867
Local Time: 9:16 PM GMT (21:16 GMT) Lon: -66.533
Time Zone: GMT Elev: 55 ft

Show me the last for .
Show Coded

Time T Td Feel RH Dir Speed Gust Alt SLP Vis Weather Sky Remarks
2017-11-17 21:00 34 28 20 80 290° 22 31 29.55 29.55 9 OVC025 None
2017-11-17 20:53 34 28 20 80 290° 13 29 29.54 29.55 9 OVC025 None
2017-11-17 20:41 36 28 23 74 280° 17 28 29.54 29.55 9 OVC023 None
2017-11-17 20:15 36 28 21 74 280° 21 36 29.53 29.53 9 OVC025 None
2017-11-17 20:00 36 28 22 74 280° 22 35 29.52 29.53 9 OVC023 Pressure rising rapidly
2017-11-17 19:46 36 30 23 80 280° 16 30 29.51 29.52 9 OVC023 None
2017-11-17 19:23 36 30 22 80 300° 16 31 29.49 29.50 9 BKN025 OVC030 None
2017-11-17 19:07 37 30 24 74 300° 20 36 29.48 29.49 9 BKN025 OVC031 None
2017-11-17 19:05 37 30 24 74 290° 22 36 29.48 29.49 9 BKN021 OVC028 None
2017-11-17 19:00 37 32 24 80 290° 20 38 29.47 29.48 9 SCT021 OVC028 None
2017-11-17 18:49 37 32 23 80 300° 18 39 29.47 29.48 9 SCT021 OVC028 None
2017-11-17 18:45 37 32 25 80 280° 14 29 29.47 29.48 9 BKN021 OVC030 Pressure rising rapidly
2017-11-17 18:20 37 32 24 80 280° 21 37 29.45 29.46 9 SCT024 OVC033 None
2017-11-17 18:19 37 32 24 80 280° 20 37 29.45 29.46 9 FEW019 BKN024 OVC033 None
2017-11-17 18:16 39 34 28 80 290° 15 25 29.45 29.46 9 SCT021 BKN026 OVC032 None
2017-11-17 18:14 39 32 28 75 290° 16 25 29.45 29.45 9 BKN024 OVC032 None
2017-11-17 18:00 39 34 27 80 290° 20 32 29.44 29.45 9 BKN025 OVC032 None
2017-11-17 17:57 39 34 27 80 280° 17 30 29.44 29.45 9 BKN025 OVC032 None
2017-11-17 17:49 39 34 28 80 290° 15 26 29.44 29.44 9 BKN023 OVC029 None
2017-11-17 17:44 39 34 28 80 280° 20 26 29.43 29.44 9 SCT021 BKN027 OVC032 None
2017-11-17 17:43 39 34 28 80 280° 21 26 29.43 29.44 9 BKN023 OVC030 None
2017-11-17 17:38 39 34 28 80 280° 13 29 29.43 29.44 9 BKN025 OVC032 None
2017-11-17 17:31 39 34 28 80 290° 17 26 29.43 29.44 9 BKN021 OVC029 None
2017-11-17 17:30 39 34 28 80 290° 15 26 29.43 29.44 9 SCT021 OVC027 None
2017-11-17 17:00 41 36 30 80 290° 15 28 29.42 29.42 9 BKN022 OVC028 None
2017-11-17 16:59 39 36 28 86 290° 14 28 29.41 29.42 9 SCT020 OVC025 None
2017-11-17 16:53 39 36 28 86 280° 16 26 29.41 29.42 9 BKN022 OVC029 None
2017-11-17 16:52 39 36 28 86 280° 16 26 29.41 29.42 9 SCT019 OVC026 None
2017-11-17 16:42 41 37 31 86 280° 14 22 29.41 29.41 9 BKN022 OVC029 None
2017-11-17 16:33 39 36 29 86 290° 13 22 29.40 29.41 9 FEW018 OVC025 None
2017-11-17 16:30 39 36 28 86 270° 13 26 29.40 29.41 9 BKN022 OVC028 None
2017-11-17 16:28 39 36 28 86 290° 10 26 29.40 29.41 9 FEW018 OVC025 None
2017-11-17 16:26 39 36 28 86 280° 13 26 29.40 29.41 9 BKN021 OVC025 None
2017-11-17 16:25 39 36 28 86 280° 14 26 29.40 29.41 9 SCT019 OVC025 None
2017-11-17 16:17 39 36 28 86 290° 14 28 29.40 29.40 9 FEW017 BKN022 BKN027 OVC042 None
2017-11-17 16:15 39 36 28 86 290° 16 28 29.40 29.40 9 SCT020 BKN025 OVC031 None
2017-11-17 16:14 39 36 28 86 280° 16 28 29.40 29.40 9 BKN023 OVC031 None
2017-11-17 16:11 39 36 28 86 280° 16 26 29.40 29.40 9 -RA FEW016 BKN023 OVC031 None
2017-11-17 16:09 39 36 28 86 280° 13 26 29.40 29.40 9 -RA FEW015 SCT020 BKN025 OVC031 None
2017-11-17 16:00 39 37 28 93 290° 17 28 29.40 29.40 9 -RA FEW015 BKN021 BKN027 OVC033 None
2017-11-17 15:38 39 36 28 86 290° 14 24 29.39 29.40 9 -RA BKN021 OVC035 None
2017-11-17 15:08 39 36 29 86 300° 15 23 29.38 29.39 9 SCT017 BKN024 OVC029 None
2017-11-17 15:06 39 36 28 86 300° 15 25 29.38 29.39 9 SCT020 OVC027 None
2017-11-17 15:00 39 36 28 86 300° 17 26 29.38 29.39 9 BKN021 OVC027 None
2017-11-17 14:45 37 36 26 93 300° 14 25 29.38 29.38 9 BKN019 OVC024 None
2017-11-17 14:19 36 36 23 100 290° 17 25 29.36 29.36 6 -RA BR FEW018 OVC023 None
2017-11-17 14:12 36 36 23 100 290° 17 26 29.35 29.36 5 -RA BR FEW011 OVC021 None
2017-11-17 14:08 36 34 23 93 300° 15 26 29.35 29.36 5 -RA -UP BR FEW009 OVC023 None
2017-11-17 14:06 36 34 23 93 300° 15 26 29.35 29.36 6 -RA -UP BR FEW012 OVC023 None
2017-11-17 14:03 36 34 23 93 300° 16 26 29.35 29.36 6 -UP BR FEW009 OVC021 None
2017-11-17 14:00 36 34 23 93 300° 14 26 29.35 29.36 7 -SN -UP FEW009 OVC021 None
2017-11-17 13:57 36 34 23 93 290° 16 26 29.35 29.36 7 -SN -UP FEW009 OVC019 None
2017-11-17 13:53 36 34 23 93 300° 15 26 29.35 29.35 7 -SN FEW009 OVC019 None
2017-11-17 13:43 34 34 20 100 290° 17 30 29.34 29.35 8 RASN SCT007 OVC019 None
2017-11-17 13:39 34 34 20 100 290° 17 30 29.34 29.34 6 -SN SCT007 OVC017 None
2017-11-17 13:32 34 34 21 100 290° 16 26 29.33 29.34 3 -SN SCT007 OVC013 None
2017-11-17 13:27 34 34 21 100 290° 18 26 29.33 29.34 2 -SN SCT007 OVC015 None
2017-11-17 13:22 34 34 20 100 300° 17 29 29.33 29.34 2 -SN -UP FEW007 SCT011 OVC017 None
2017-11-17 13:21 36 34 23 93 300° 17 29 29.33 29.34 2 RASN -UP FEW007 SCT011 OVC017 None
2017-11-17 13:18 36 34 22 93 300° 17 32 29.33 29.34 2 RA -UP BR FEW009 OVC017 None
2017-11-17 13:16 36 34 22 93 300° 20 32 29.33 29.34 3 RA -UP BR FEW011 SCT014 OVC019 None
2017-11-17 13:12 36 36 22 100 300° 20 32 29.33 29.33 5 -RA BR FEW011 SCT017 OVC021 None
2017-11-17 13:00 36 36 24 100 290° 14 24 29.32 29.33 6 -RA BR SCT014 OVC023 None
2017-11-17 12:53 36 36 23 100 290° 15 28 29.32 29.32 4 -RA BR SCT013 OVC023 None
2017-11-17 12:47 36 34 23 93 290° 15 28 29.32 29.32 4 -RA -UP BR FEW010 SCT015 OVC021 None
2017-11-17 12:31 36 34 24 93 280° 13 23 29.31 29.32 4 -UP BR BKN012 OVC018 None
2017-11-17 12:26 36 34 24 93 290° 15 23 29.31 29.32 5 RA -UP BR BKN012 OVC018 None
2017-11-17 12:25 36 36 24 100 280° 15 23 29.31 29.32 6 RA -UP BR BKN012 OVC018 None
2017-11-17 12:00 36 36 24 100 280° 13 23 29.30 29.31 9 -RA BKN013 OVC018 None
2017-11-17 11:40 36 36 25 100 270° 13 21 29.30 29.30 9 -RA BKN013 BKN024 OVC032 None
2017-11-17 11:14 37 36 27 93 270° 12 21 29.29 29.30 8 -RA FEW010 BKN015 BKN028 OVC036 None
2017-11-17 11:00 39 37 29 93 280° 15 23 29.29 29.29 6 -RA BR FEW015 SCT028 OVC038 None
2017-11-17 10:48 39 37 28 93 300° 16 28 29.28 29.29 6 -RA BR SCT015 SCT028 OVC038 None
2017-11-17 10:41 39 37 28 93 300° 18 25 29.28 29.29 5 -RA BR SCT015 BKN028 OVC034 None
2017-11-17 10:38 39 37 28 93 300° 17 24 29.28 29.29 5 -RA BR BKN015 OVC028 None
2017-11-17 10:00 41 39 32 93 290° 10 18 29.29 29.29 9 -RA BKN013 OVC035 None
2017-11-17 09:56 41 39 32 93 290° 10 17 29.29 29.29 9 -RA BKN013 BKN032 OVC039 None
2017-11-17 09:15 39 39 29 100 320° 14 23 29.29 29.30 9 -RA SCT007 OVC055 None
2017-11-17 09:00 39 39 30 100 300° 13 20 29.29 29.30 9 -RA BKN007 OVC055 None
2017-11-17 08:35 41 39 32 93 330° 10 17 29.30 29.31 9 -RA BKN007 OVC038 None
2017-11-17 08:33 41 39 32 93 330° 10 17 29.30 29.31 9 RA SCT007 OVC038 None
2017-11-17 08:00 41 41 33 100 330° 14 - 29.33 29.33 8 RA OVC009 Pressure falling rapidly
2017-11-17 07:53 41 41 34 100 320° 13 - 29.34 29.35 7 -RA OVC007 None
2017-11-17 07:51 41 41 34 100 310° 13 - 29.34 29.35 6 -RA BR OVC005 None
2017-11-17 07:27 43 43 38 100 360° 8 - 29.35 29.36 5 RA BR OVC005 None
2017-11-17 07:08 43 43 37 100 10° 10 - 29.36 29.36 6 RA BR OVC005 Pressure falling rapidly
2017-11-17 07:00 43 43 38 100 10° 8 - 29.37 29.37 5 RA BR BKN005 OVC009 Pressure falling rapidly
2017-11-17 06:48 43 43 39 100 30° 6 - 29.38 29.39 3 RA BR BKN005 BKN009 OVC014 None
2017-11-17 06:36 43 43 37 100 30° 10 - 29.39 29.39 3 RA BR BKN007 OVC012 Pressure falling rapidly
2017-11-17 06:33 43 43 37 100 30° 12 - 29.39 29.40 3 +RA BR BKN007 OVC012 Pressure falling rapidly
2017-11-17 06:29 43 43 37 100 30° 10 - 29.40 29.40 3 +RA BR BKN005 OVC012 None
2017-11-17 06:16 43 43 35 100 50° 12 17 29.41 29.41 5 RA BR OVC005 None
2017-11-17 06:09 43 43 36 100 40° 14 - 29.41 29.41 6 -RA BR OVC005 None
2017-11-17 06:00 43 43 36 100 40° 14 - 29.41 29.42 3 RA BR OVC005 Pressure falling rapidly
2017-11-17 05:07 43 43 37 100 40° 10 - 29.48 29.48 5 -RA BR OVC005 Pressure falling rapidly
2017-11-17 05:00 43 43 37 100 40° 12 - 29.48 29.49 8 -RA OVC005 Pressure falling rapidly
2017-11-17 04:13 43 41 37 93 40° 12 - 29.54 29.54 7 -RA BKN005 BKN060 Pressure falling rapidly
2017-11-17 04:00 41 41 35 100 40° 9 - 29.56 29.56 8 -RA SCT005 SCT042 SCT049 OVC055 Pressure falling rapidly
2017-11-17 03:37 41 41 34 100 30° 12 - 29.58 29.58 6 -RA BR FEW031 OVC055 Pressure falling rapidly
2017-11-17 03:00 43 41 37 93 60° 10 - 29.62 29.62 3 RA BR SCT005 SCT011 BKN031 OVC042 None
2017-11-17 02:56 43 41 37 93 60° 10 - 29.62 29.63 3 RA BR SCT005 SCT013 BKN031 OVC039 Pressure falling rapidly
2017-11-17 02:52 41 41 35 100 60° 10 - 29.62 29.63 3 -RA BR SCT005 BKN013 BKN032 OVC038 Pressure falling rapidly
2017-11-17 02:44 41 41 34 100 50° 12 - 29.63 29.64 3 RA BR BKN005 BKN011 BKN016 OVC041 Pressure falling rapidly
2017-11-17 02:34 43 41 41 93 60° 3 - 29.64 29.65 2 RA BR BKN005 OVC011 None
2017-11-17 02:00 43 41 37 93 40° 9 - 29.66 29.66 4 -RA BR BKN005 OVC010 None
2017-11-17 01:53 43 41 37 93 30° 12 - 29.66 29.67 4 -RA BR BKN008 OVC014 Pressure falling rapidly
2017-11-17 01:50 43 41 37 93 40° 12 - 29.67 29.67 4 -RA BR SCT008 BKN012 OVC016 Pressure falling rapidly
2017-11-17 01:49 43 41 37 93 40° 12 - 29.67 29.67 4 -RA BR BKN008 OVC016 Pressure falling rapidly
2017-11-17 01:48 43 41 37 93 40° 12 - 29.67 29.67 4 RA BR SCT008 BKN012 OVC016 Pressure falling rapidly
2017-11-17 01:47 43 41 37 93 40° 10 - 29.67 29.67 4 RA BR BKN008 OVC016 Pressure falling rapidly
2017-11-17 01:40 43 41 37 93 40° 9 - 29.68 29.68 5 -RA BR SCT008 BKN012 OVC016 None
2017-11-17 01:39 43 41 37 93 40° 9 - 29.68 29.69 5 -RA BR BKN008 OVC016 None
2017-11-17 01:19 43 41 37 93 50° 10 - 29.70 29.70 4 -RA BR SCT008 BKN020 OVC028 None
2017-11-17 01:12 43 41 37 93 50° 9 - 29.70 29.71 5 -RA BR BKN008 BKN024 OVC042 None
2017-11-17 01:07 43 41 37 93 50° 9 - 29.70 29.71 6 -RA BR BKN008 BKN026 BKN031 OVC042 Pressure falling rapidly
2017-11-17 01:00 43 41 37 93 40° 9 - 29.71 29.72 3 -RA BR BKN008 OVC042 Pressure falling rapidly
2017-11-17 00:37 43 41 38 93 60° 8 - 29.73 29.74 5 RA BR OVC012 None
2017-11-17 00:17 43 41 38 93 50° 8 - 29.74 29.74 9 -RA OVC012 None
2017-11-17 00:05 43 41 38 93 50° 8 - 29.75 29.75 9 OVC012 None
2017-11-17 00:00 43 41 39 93 50° 7 - 29.75 29.76 9 -RA OVC012 None
2017-11-16 23:44 43 41 39 93 70° 6 - 29.76 29.77 9 -RA OVC014 None
2017-11-16 23:00 43 41 39 93 60° 6 - 29.79 29.79 9 BKN016 OVC021 None
2017-11-16 22:44 43 41 39 93 60° 6 - 29.79 29.80 9 SCT015 OVC021 None
2017-11-16 22:00 43 43 39 100 60° 7 - 29.81 29.82 9 None

Support USWX by starting your Amazon purchase here.